sensor_id;sensor_type;location;lat;lon;timestamp;P1;durP1;ratioP1;P2;durP2;ratioP2
37451;SDS011;23314;51.114;6.900;2023-05-23T00:00:56;11.67;;;10.57;;
37451;SDS011;23314;51.114;6.900;2023-05-23T00:03:22;12.20;;;11.00;;
37451;SDS011;23314;51.114;6.900;2023-05-23T00:05:48;11.70;;;10.57;;
37451;SDS011;23314;51.114;6.900;2023-05-23T00:08:14;12.57;;;11.23;;
37451;SDS011;23314;51.114;6.900;2023-05-23T00:10:40;13.30;;;11.07;;
37451;SDS011;23314;51.114;6.900;2023-05-23T00:13:05;12.03;;;10.93;;
37451;SDS011;23314;51.114;6.900;2023-05-23T00:15:33;12.60;;;11.30;;
37451;SDS011;23314;51.114;6.900;2023-05-23T00:18:01;11.33;;;10.23;;
37451;SDS011;23314;51.114;6.900;2023-05-23T00:20:26;13.43;;;10.97;;
37451;SDS011;23314;51.114;6.900;2023-05-23T00:22:52;12.27;;;10.97;;
37451;SDS011;23314;51.114;6.900;2023-05-23T00:25:18;11.60;;;10.40;;
37451;SDS011;23314;51.114;6.900;2023-05-23T00:27:46;12.07;;;10.87;;
37451;SDS011;23314;51.114;6.900;2023-05-23T00:30:11;12.20;;;11.00;;
37451;SDS011;23314;51.114;6.900;2023-05-23T00:32:36;12.77;;;11.40;;
37451;SDS011;23314;51.114;6.900;2023-05-23T00:35:02;11.53;;;10.43;;
37451;SDS011;23314;51.114;6.900;2023-05-23T00:37:27;12.57;;;10.87;;
37451;SDS011;23314;51.114;6.900;2023-05-23T00:39:53;11.93;;;10.73;;
37451;SDS011;23314;51.114;6.900;2023-05-23T00:42:18;11.77;;;10.57;;
37451;SDS011;23314;51.114;6.900;2023-05-23T00:44:43;11.27;;;10.17;;
37451;SDS011;23314;51.114;6.900;2023-05-23T00:47:09;12.70;;;10.73;;
37451;SDS011;23314;51.114;6.900;2023-05-23T00:49:37;10.97;;;9.97;;
37451;SDS011;23314;51.114;6.900;2023-05-23T00:52:03;12.13;;;10.47;;
37451;SDS011;23314;51.114;6.900;2023-05-23T00:54:29;13.80;;;10.70;;
37451;SDS011;23314;51.114;6.900;2023-05-23T00:56:58;12.33;;;11.23;;
37451;SDS011;23314;51.114;6.900;2023-05-23T00:59:24;11.73;;;10.63;;
37451;SDS011;23314;51.114;6.900;2023-05-23T01:01:50;12.67;;;11.43;;
37451;SDS011;23314;51.114;6.900;2023-05-23T01:04:17;11.93;;;10.77;;
37451;SDS011;23314;51.114;6.900;2023-05-23T01:06:44;14.57;;;11.93;;
37451;SDS011;23314;51.114;6.900;2023-05-23T01:09:11;13.40;;;12.10;;
37451;SDS011;23314;51.114;6.900;2023-05-23T01:11:42;10.73;;;9.63;;
37451;SDS011;23314;51.114;6.900;2023-05-23T01:14:16;8.83;;;7.93;;
37451;SDS011;23314;51.114;6.900;2023-05-23T01:16:50;8.37;;;7.67;;
37451;SDS011;23314;51.114;6.900;2023-05-23T01:21:54;5.90;;;5.30;;
37451;SDS011;23314;51.114;6.900;2023-05-23T01:24:35;4.70;;;4.30;;
37451;SDS011;23314;51.114;6.900;2023-05-23T01:27:08;4.93;;;4.40;;
37451;SDS011;23314;51.114;6.900;2023-05-23T01:29:44;5.03;;;4.53;;
37451;SDS011;23314;51.114;6.900;2023-05-23T01:32:11;4.33;;;3.93;;
37451;SDS011;23314;51.114;6.900;2023-05-23T01:34:38;4.37;;;4.07;;
37451;SDS011;23314;51.114;6.900;2023-05-23T01:37:08;4.77;;;4.30;;
37451;SDS011;23314;51.114;6.900;2023-05-23T01:39:35;4.13;;;3.83;;
37451;SDS011;23314;51.114;6.900;2023-05-23T01:42:01;4.30;;;3.93;;
37451;SDS011;23314;51.114;6.900;2023-05-23T01:44:26;4.27;;;3.87;;
37451;SDS011;23314;51.114;6.900;2023-05-23T01:46:52;4.63;;;4.20;;
37451;SDS011;23314;51.114;6.900;2023-05-23T01:49:17;5.00;;;4.57;;
37451;SDS011;23314;51.114;6.900;2023-05-23T01:51:45;5.27;;;4.73;;
37451;SDS011;23314;51.114;6.900;2023-05-23T01:54:11;4.73;;;4.33;;
37451;SDS011;23314;51.114;6.900;2023-05-23T01:56:38;4.40;;;4.00;;
37451;SDS011;23314;51.114;6.900;2023-05-23T01:59:05;4.53;;;4.00;;
37451;SDS011;23314;51.114;6.900;2023-05-23T02:01:31;6.20;;;4.40;;
37451;SDS011;23314;51.114;6.900;2023-05-23T02:03:58;5.20;;;4.40;;
37451;SDS011;23314;51.114;6.900;2023-05-23T02:06:24;5.80;;;5.30;;
37451;SDS011;23314;51.114;6.900;2023-05-23T02:08:49;5.37;;;4.50;;
37451;SDS011;23314;51.114;6.900;2023-05-23T02:11:15;4.87;;;4.47;;
37451;SDS011;23314;51.114;6.900;2023-05-23T02:13:40;5.10;;;4.60;;
37451;SDS011;23314;51.114;6.900;2023-05-23T02:16:05;5.43;;;4.30;;
37451;SDS011;23314;51.114;6.900;2023-05-23T02:18:31;5.27;;;4.60;;
37451;SDS011;23314;51.114;6.900;2023-05-23T02:20:56;5.43;;;4.83;;
37451;SDS011;23314;51.114;6.900;2023-05-23T02:23:22;6.37;;;5.20;;
37451;SDS011;23314;51.114;6.900;2023-05-23T02:25:47;6.07;;;5.53;;
37451;SDS011;23314;51.114;6.900;2023-05-23T02:28:12;5.67;;;5.07;;
37451;SDS011;23314;51.114;6.900;2023-05-23T02:30:38;6.17;;;5.57;;
37451;SDS011;23314;51.114;6.900;2023-05-23T02:33:04;6.03;;;5.43;;
37451;SDS011;23314;51.114;6.900;2023-05-23T02:35:30;4.93;;;4.53;;
37451;SDS011;23314;51.114;6.900;2023-05-23T02:37:56;4.70;;;4.30;;
37451;SDS011;23314;51.114;6.900;2023-05-23T02:40:21;5.20;;;4.80;;
37451;SDS011;23314;51.114;6.900;2023-05-23T02:42:46;6.17;;;4.63;;
37451;SDS011;23314;51.114;6.900;2023-05-23T02:45:12;5.07;;;4.53;;
37451;SDS011;23314;51.114;6.900;2023-05-23T02:47:37;5.30;;;4.80;;
37451;SDS011;23314;51.114;6.900;2023-05-23T02:50:02;7.70;;;4.70;;
37451;SDS011;23314;51.114;6.900;2023-05-23T02:52:28;5.60;;;5.07;;
37451;SDS011;23314;51.114;6.900;2023-05-23T02:54:54;6.10;;;5.43;;
37451;SDS011;23314;51.114;6.900;2023-05-23T02:57:19;7.07;;;5.20;;
37451;SDS011;23314;51.114;6.900;2023-05-23T02:59:44;6.07;;;5.47;;
37451;SDS011;23314;51.114;6.900;2023-05-23T03:02:10;6.03;;;5.53;;
37451;SDS011;23314;51.114;6.900;2023-05-23T03:04:35;7.03;;;5.83;;
37451;SDS011;23314;51.114;6.900;2023-05-23T03:07:02;7.47;;;5.90;;
37451;SDS011;23314;51.114;6.900;2023-05-23T03:09:27;7.63;;;6.50;;
37451;SDS011;23314;51.114;6.900;2023-05-23T03:11:52;9.10;;;6.57;;
37451;SDS011;23314;51.114;6.900;2023-05-23T03:14:18;8.23;;;6.30;;
37451;SDS011;23314;51.114;6.900;2023-05-23T03:16:43;8.17;;;6.23;;
37451;SDS011;23314;51.114;6.900;2023-05-23T03:19:09;6.93;;;5.93;;
37451;SDS011;23314;51.114;6.900;2023-05-23T03:21:34;7.20;;;6.50;;
37451;SDS011;23314;51.114;6.900;2023-05-23T03:24:00;8.20;;;7.37;;
37451;SDS011;23314;51.114;6.900;2023-05-23T03:26:25;12.03;;;7.20;;
37451;SDS011;23314;51.114;6.900;2023-05-23T03:28:51;9.33;;;8.10;;
37451;SDS011;23314;51.114;6.900;2023-05-23T03:31:16;8.60;;;7.70;;
37451;SDS011;23314;51.114;6.900;2023-05-23T03:33:42;9.13;;;7.70;;
37451;SDS011;23314;51.114;6.900;2023-05-23T03:36:07;8.80;;;7.53;;
37451;SDS011;23314;51.114;6.900;2023-05-23T03:38:32;9.07;;;7.67;;
37451;SDS011;23314;51.114;6.900;2023-05-23T03:40:58;9.50;;;8.20;;
37451;SDS011;23314;51.114;6.900;2023-05-23T03:43:23;10.03;;;8.30;;
37451;SDS011;23314;51.114;6.900;2023-05-23T03:45:48;9.17;;;8.17;;
37451;SDS011;23314;51.114;6.900;2023-05-23T03:48:14;11.80;;;8.20;;
37451;SDS011;23314;51.114;6.900;2023-05-23T03:50:39;8.60;;;7.70;;
37451;SDS011;23314;51.114;6.900;2023-05-23T03:53:05;9.73;;;7.50;;
37451;SDS011;23314;51.114;6.900;2023-05-23T03:55:31;9.87;;;6.90;;
37451;SDS011;23314;51.114;6.900;2023-05-23T03:57:57;9.20;;;7.13;;
37451;SDS011;23314;51.114;6.900;2023-05-23T04:00:22;9.67;;;6.60;;
37451;SDS011;23314;51.114;6.900;2023-05-23T04:02:47;8.10;;;6.30;;
37451;SDS011;23314;51.114;6.900;2023-05-23T04:05:14;6.67;;;5.97;;
37451;SDS011;23314;51.114;6.900;2023-05-23T04:07:39;6.90;;;6.03;;
37451;SDS011;23314;51.114;6.900;2023-05-23T04:10:06;7.77;;;5.73;;
37451;SDS011;23314;51.114;6.900;2023-05-23T04:12:32;7.37;;;5.60;;
37451;SDS011;23314;51.114;6.900;2023-05-23T04:14:57;7.07;;;5.73;;
37451;SDS011;23314;51.114;6.900;2023-05-23T04:17:23;9.13;;;5.50;;
37451;SDS011;23314;51.114;6.900;2023-05-23T04:19:49;7.03;;;5.90;;
37451;SDS011;23314;51.114;6.900;2023-05-23T04:22:15;6.17;;;5.57;;
37451;SDS011;23314;51.114;6.900;2023-05-23T04:24:40;7.93;;;6.13;;
37451;SDS011;23314;51.114;6.900;2023-05-23T04:27:06;7.40;;;6.17;;
37451;SDS011;23314;51.114;6.900;2023-05-23T04:29:32;8.67;;;6.00;;
37451;SDS011;23314;51.114;6.900;2023-05-23T04:31:59;7.13;;;6.00;;
37451;SDS011;23314;51.114;6.900;2023-05-23T04:34:25;8.80;;;6.13;;
37451;SDS011;23314;51.114;6.900;2023-05-23T04:36:51;8.70;;;6.07;;
37451;SDS011;23314;51.114;6.900;2023-05-23T04:39:18;9.20;;;6.23;;
37451;SDS011;23314;51.114;6.900;2023-05-23T04:41:43;10.67;;;6.73;;
37451;SDS011;23314;51.114;6.900;2023-05-23T04:44:09;8.00;;;6.63;;
37451;SDS011;23314;51.114;6.900;2023-05-23T04:46:35;12.17;;;7.07;;
37451;SDS011;23314;51.114;6.900;2023-05-23T04:49:00;9.53;;;7.27;;
37451;SDS011;23314;51.114;6.900;2023-05-23T04:51:26;9.93;;;7.13;;
37451;SDS011;23314;51.114;6.900;2023-05-23T04:53:51;9.50;;;7.23;;
37451;SDS011;23314;51.114;6.900;2023-05-23T04:56:18;9.97;;;7.20;;
37451;SDS011;23314;51.114;6.900;2023-05-23T04:58:45;10.30;;;7.30;;
37451;SDS011;23314;51.114;6.900;2023-05-23T05:01:11;9.43;;;7.87;;
37451;SDS011;23314;51.114;6.900;2023-05-23T05:03:37;11.17;;;6.97;;
37451;SDS011;23314;51.114;6.900;2023-05-23T05:06:03;10.90;;;7.70;;
37451;SDS011;23314;51.114;6.900;2023-05-23T05:08:29;10.40;;;7.47;;
37451;SDS011;23314;51.114;6.900;2023-05-23T05:10:55;10.57;;;7.17;;
37451;SDS011;23314;51.114;6.900;2023-05-23T05:13:20;8.57;;;6.83;;
37451;SDS011;23314;51.114;6.900;2023-05-23T05:15:46;11.83;;;7.27;;
37451;SDS011;23314;51.114;6.900;2023-05-23T05:18:11;12.07;;;8.17;;
37451;SDS011;23314;51.114;6.900;2023-05-23T05:20:37;9.63;;;7.60;;
37451;SDS011;23314;51.114;6.900;2023-05-23T05:23:02;11.93;;;8.03;;
37451;SDS011;23314;51.114;6.900;2023-05-23T05:25:28;9.10;;;7.70;;
37451;SDS011;23314;51.114;6.900;2023-05-23T05:27:56;9.97;;;7.53;;
37451;SDS011;23314;51.114;6.900;2023-05-23T05:30:27;11.10;;;7.33;;
37451;SDS011;23314;51.114;6.900;2023-05-23T05:32:52;14.40;;;8.20;;
37451;SDS011;23314;51.114;6.900;2023-05-23T05:35:17;11.70;;;8.60;;
37451;SDS011;23314;51.114;6.900;2023-05-23T05:37:43;13.47;;;7.93;;
37451;SDS011;23314;51.114;6.900;2023-05-23T05:40:08;11.13;;;8.60;;
37451;SDS011;23314;51.114;6.900;2023-05-23T05:42:34;12.13;;;8.67;;
37451;SDS011;23314;51.114;6.900;2023-05-23T05:44:59;12.13;;;8.50;;
37451;SDS011;23314;51.114;6.900;2023-05-23T05:47:25;9.63;;;7.73;;
37451;SDS011;23314;51.114;6.900;2023-05-23T05:49:51;14.93;;;8.47;;
37451;SDS011;23314;51.114;6.900;2023-05-23T05:52:16;9.23;;;8.33;;
37451;SDS011;23314;51.114;6.900;2023-05-23T05:54:41;11.00;;;8.70;;
37451;SDS011;23314;51.114;6.900;2023-05-23T05:57:06;10.30;;;8.10;;
37451;SDS011;23314;51.114;6.900;2023-05-23T05:59:32;11.07;;;8.70;;
37451;SDS011;23314;51.114;6.900;2023-05-23T06:01:57;12.63;;;9.07;;
37451;SDS011;23314;51.114;6.900;2023-05-23T06:04:22;12.60;;;8.60;;
37451;SDS011;23314;51.114;6.900;2023-05-23T06:06:48;11.23;;;8.80;;
37451;SDS011;23314;51.114;6.900;2023-05-23T06:09:13;14.67;;;9.67;;
37451;SDS011;23314;51.114;6.900;2023-05-23T06:11:38;14.37;;;9.03;;
37451;SDS011;23314;51.114;6.900;2023-05-23T06:14:05;12.00;;;9.00;;
37451;SDS011;23314;51.114;6.900;2023-05-23T06:16:31;12.03;;;9.33;;
37451;SDS011;23314;51.114;6.900;2023-05-23T06:18:56;17.77;;;10.97;;
37451;SDS011;23314;51.114;6.900;2023-05-23T06:21:21;15.07;;;10.70;;
37451;SDS011;23314;51.114;6.900;2023-05-23T06:23:47;10.03;;;8.87;;
37451;SDS011;23314;51.114;6.900;2023-05-23T06:26:12;9.63;;;8.63;;
37451;SDS011;23314;51.114;6.900;2023-05-23T06:28:37;9.73;;;8.73;;
37451;SDS011;23314;51.114;6.900;2023-05-23T06:31:05;12.97;;;9.10;;
37451;SDS011;23314;51.114;6.900;2023-05-23T06:33:33;9.73;;;8.73;;
37451;SDS011;23314;51.114;6.900;2023-05-23T06:35:59;11.87;;;8.93;;
37451;SDS011;23314;51.114;6.900;2023-05-23T06:38:25;14.27;;;9.43;;
37451;SDS011;23314;51.114;6.900;2023-05-23T06:40:51;15.00;;;10.30;;
37451;SDS011;23314;51.114;6.900;2023-05-23T06:43:17;13.50;;;9.20;;
37451;SDS011;23314;51.114;6.900;2023-05-23T06:45:44;10.57;;;9.47;;
37451;SDS011;23314;51.114;6.900;2023-05-23T06:48:10;16.17;;;9.27;;
37451;SDS011;23314;51.114;6.900;2023-05-23T06:50:35;10.47;;;9.33;;
37451;SDS011;23314;51.114;6.900;2023-05-23T06:53:01;16.60;;;9.83;;
37451;SDS011;23314;51.114;6.900;2023-05-23T06:55:26;11.90;;;10.70;;
37451;SDS011;23314;51.114;6.900;2023-05-23T06:57:52;11.00;;;9.90;;
37451;SDS011;23314;51.114;6.900;2023-05-23T07:00:17;12.57;;;9.93;;
37451;SDS011;23314;51.114;6.900;2023-05-23T07:02:43;13.03;;;9.63;;
37451;SDS011;23314;51.114;6.900;2023-05-23T07:05:09;12.77;;;9.20;;
37451;SDS011;23314;51.114;6.900;2023-05-23T07:07:35;12.57;;;9.97;;
37451;SDS011;23314;51.114;6.900;2023-05-23T07:10:00;10.97;;;8.37;;
37451;SDS011;23314;51.114;6.900;2023-05-23T07:12:25;11.07;;;9.43;;
37451;SDS011;23314;51.114;6.900;2023-05-23T07:14:51;10.20;;;8.67;;
37451;SDS011;23314;51.114;6.900;2023-05-23T07:17:16;10.97;;;8.20;;
37451;SDS011;23314;51.114;6.900;2023-05-23T07:19:41;11.10;;;8.90;;
37451;SDS011;23314;51.114;6.900;2023-05-23T07:22:07;11.23;;;9.07;;
37451;SDS011;23314;51.114;6.900;2023-05-23T07:24:32;12.07;;;9.27;;
37451;SDS011;23314;51.114;6.900;2023-05-23T07:26:57;11.83;;;9.17;;
37451;SDS011;23314;51.114;6.900;2023-05-23T07:29:22;10.70;;;9.17;;
37451;SDS011;23314;51.114;6.900;2023-05-23T07:31:48;10.07;;;8.80;;
37451;SDS011;23314;51.114;6.900;2023-05-23T07:34:13;10.83;;;8.07;;
37451;SDS011;23314;51.114;6.900;2023-05-23T07:36:38;13.50;;;8.03;;
37451;SDS011;23314;51.114;6.900;2023-05-23T07:39:05;12.00;;;8.40;;
37451;SDS011;23314;51.114;6.900;2023-05-23T07:41:30;10.33;;;8.30;;
37451;SDS011;23314;51.114;6.900;2023-05-23T07:43:56;11.30;;;8.47;;
37451;SDS011;23314;51.114;6.900;2023-05-23T07:46:21;10.30;;;9.10;;
37451;SDS011;23314;51.114;6.900;2023-05-23T07:48:47;10.77;;;7.60;;
37451;SDS011;23314;51.114;6.900;2023-05-23T07:51:13;10.87;;;7.50;;
37451;SDS011;23314;51.114;6.900;2023-05-23T07:53:38;14.80;;;7.90;;
37451;SDS011;23314;51.114;6.900;2023-05-23T07:56:04;8.67;;;7.17;;
37451;SDS011;23314;51.114;6.900;2023-05-23T07:58:30;12.93;;;7.87;;
37451;SDS011;23314;51.114;6.900;2023-05-23T08:00:55;9.37;;;7.97;;
37451;SDS011;23314;51.114;6.900;2023-05-23T08:03:22;8.10;;;6.80;;
37451;SDS011;23314;51.114;6.900;2023-05-23T08:05:47;9.83;;;7.20;;
37451;SDS011;23314;51.114;6.900;2023-05-23T08:08:12;10.40;;;7.33;;
37451;SDS011;23314;51.114;6.900;2023-05-23T08:10:38;10.67;;;7.33;;
37451;SDS011;23314;51.114;6.900;2023-05-23T08:13:04;8.73;;;7.20;;
37451;SDS011;23314;51.114;6.900;2023-05-23T08:15:31;12.50;;;7.47;;
37451;SDS011;23314;51.114;6.900;2023-05-23T08:17:57;14.10;;;8.00;;
37451;SDS011;23314;51.114;6.900;2023-05-23T08:20:24;13.20;;;7.50;;
37451;SDS011;23314;51.114;6.900;2023-05-23T08:22:54;11.40;;;7.97;;
37451;SDS011;23314;51.114;6.900;2023-05-23T08:25:23;13.20;;;8.40;;
37451;SDS011;23314;51.114;6.900;2023-05-23T08:27:49;12.57;;;8.53;;
37451;SDS011;23314;51.114;6.900;2023-05-23T08:30:15;13.47;;;8.17;;
37451;SDS011;23314;51.114;6.900;2023-05-23T08:32:40;14.00;;;9.30;;
37451;SDS011;23314;51.114;6.900;2023-05-23T08:35:06;15.77;;;11.10;;
37451;SDS011;23314;51.114;6.900;2023-05-23T08:37:31;16.80;;;10.57;;
37451;SDS011;23314;51.114;6.900;2023-05-23T08:39:57;12.23;;;8.70;;
37451;SDS011;23314;51.114;6.900;2023-05-23T08:42:22;15.07;;;10.30;;
37451;SDS011;23314;51.114;6.900;2023-05-23T08:44:47;17.07;;;13.30;;
37451;SDS011;23314;51.114;6.900;2023-05-23T08:47:13;15.37;;;11.27;;
37451;SDS011;23314;51.114;6.900;2023-05-23T08:49:41;16.23;;;12.63;;
37451;SDS011;23314;51.114;6.900;2023-05-23T08:52:08;24.87;;;16.20;;
37451;SDS011;23314;51.114;6.900;2023-05-23T08:54:37;22.07;;;16.77;;
37451;SDS011;23314;51.114;6.900;2023-05-23T08:57:03;24.90;;;21.50;;
37451;SDS011;23314;51.114;6.900;2023-05-23T08:59:28;26.77;;;24.07;;
37451;SDS011;23314;51.114;6.900;2023-05-23T09:01:54;28.13;;;25.33;;
37451;SDS011;23314;51.114;6.900;2023-05-23T09:04:20;32.00;;;28.70;;
37451;SDS011;23314;51.114;6.900;2023-05-23T09:06:46;36.77;;;31.07;;
37451;SDS011;23314;51.114;6.900;2023-05-23T09:09:11;33.80;;;30.13;;
37451;SDS011;23314;51.114;6.900;2023-05-23T09:11:36;36.13;;;32.27;;
37451;SDS011;23314;51.114;6.900;2023-05-23T09:14:02;46.30;;;41.67;;
37451;SDS011;23314;51.114;6.900;2023-05-23T09:16:32;41.13;;;36.37;;
37451;SDS011;23314;51.114;6.900;2023-05-23T09:19:10;34.90;;;30.83;;
37451;SDS011;23314;51.114;6.900;2023-05-23T09:21:40;28.50;;;25.40;;
37451;SDS011;23314;51.114;6.900;2023-05-23T09:24:07;31.07;;;25.63;;
37451;SDS011;23314;51.114;6.900;2023-05-23T09:26:32;24.87;;;18.17;;
37451;SDS011;23314;51.114;6.900;2023-05-23T09:28:58;17.97;;;14.80;;
37451;SDS011;23314;51.114;6.900;2023-05-23T09:31:25;20.10;;;15.17;;
37451;SDS011;23314;51.114;6.900;2023-05-23T09:33:52;22.87;;;16.30;;
37451;SDS011;23314;51.114;6.900;2023-05-23T09:36:17;20.83;;;16.93;;
37451;SDS011;23314;51.114;6.900;2023-05-23T09:38:43;21.47;;;16.47;;
37451;SDS011;23314;51.114;6.900;2023-05-23T09:41:10;28.13;;;24.30;;
37451;SDS011;23314;51.114;6.900;2023-05-23T09:43:37;27.93;;;24.50;;
37451;SDS011;23314;51.114;6.900;2023-05-23T09:46:09;27.73;;;22.00;;
37451;SDS011;23314;51.114;6.900;2023-05-23T09:48:35;24.63;;;18.33;;
37451;SDS011;23314;51.114;6.900;2023-05-23T09:51:04;26.40;;;18.43;;
37451;SDS011;23314;51.114;6.900;2023-05-23T09:53:33;20.73;;;17.73;;
37451;SDS011;23314;51.114;6.900;2023-05-23T09:55:58;23.50;;;17.70;;
37451;SDS011;23314;51.114;6.900;2023-05-23T09:58:26;24.87;;;19.33;;
37451;SDS011;23314;51.114;6.900;2023-05-23T10:00:54;20.30;;;17.10;;
37451;SDS011;23314;51.114;6.900;2023-05-23T10:03:26;23.83;;;16.37;;
37451;SDS011;23314;51.114;6.900;2023-05-23T10:06:03;20.47;;;15.77;;
37451;SDS011;23314;51.114;6.900;2023-05-23T10:08:42;13.45;;;12.05;;
37451;SDS011;23314;51.114;6.900;2023-05-23T10:13:37;17.27;;;14.23;;
37451;SDS011;23314;51.114;6.900;2023-05-23T10:18:57;26.02;;;23.40;;
37451;SDS011;23314;51.114;6.900;2023-05-23T10:21:28;23.80;;;21.13;;
37451;SDS011;23314;51.114;6.900;2023-05-23T10:23:57;21.40;;;17.90;;
37451;SDS011;23314;51.114;6.900;2023-05-23T10:26:23;24.20;;;20.70;;
37451;SDS011;23314;51.114;6.900;2023-05-23T10:28:50;31.67;;;25.50;;
37451;SDS011;23314;51.114;6.900;2023-05-23T10:31:16;33.03;;;29.40;;
37451;SDS011;23314;51.114;6.900;2023-05-23T10:33:42;42.47;;;37.00;;
37451;SDS011;23314;51.114;6.900;2023-05-23T10:36:21;35.23;;;29.57;;
37451;SDS011;23314;51.114;6.900;2023-05-23T10:38:56;21.50;;;17.37;;
37451;SDS011;23314;51.114;6.900;2023-05-23T10:41:33;20.47;;;15.40;;
37451;SDS011;23314;51.114;6.900;2023-05-23T10:49:19;15.70;;;9.43;;
37451;SDS011;23314;51.114;6.900;2023-05-23T10:51:49;15.97;;;9.90;;
37451;SDS011;23314;51.114;6.900;2023-05-23T10:54:18;16.00;;;11.27;;
37451;SDS011;23314;51.114;6.900;2023-05-23T10:56:47;24.53;;;14.97;;
37451;SDS011;23314;51.114;6.900;2023-05-23T10:59:26;37.20;;;28.87;;
37451;SDS011;23314;51.114;6.900;2023-05-23T11:01:52;32.87;;;29.27;;
37451;SDS011;23314;51.114;6.900;2023-05-23T11:04:26;24.77;;;17.40;;
37451;SDS011;23314;51.114;6.900;2023-05-23T11:06:53;17.37;;;12.57;;
37451;SDS011;23314;51.114;6.900;2023-05-23T11:09:19;20.37;;;11.33;;
37451;SDS011;23314;51.114;6.900;2023-05-23T11:15:17;11.60;;;8.23;;
37451;SDS011;23314;51.114;6.900;2023-05-23T11:22:29;13.07;;;7.03;;
37451;SDS011;23314;51.114;6.900;2023-05-23T11:24:56;11.90;;;7.73;;
37451;SDS011;23314;51.114;6.900;2023-05-23T11:27:32;14.70;;;9.10;;
37451;SDS011;23314;51.114;6.900;2023-05-23T11:29:59;12.57;;;8.10;;
37451;SDS011;23314;51.114;6.900;2023-05-23T11:32:26;11.77;;;8.90;;
37451;SDS011;23314;51.114;6.900;2023-05-23T11:34:54;12.48;;;11.20;;
37451;SDS011;23314;51.114;6.900;2023-05-23T11:37:19;16.05;;;11.93;;
37451;SDS011;23314;51.114;6.900;2023-05-23T11:39:45;17.17;;;11.60;;
37451;SDS011;23314;51.114;6.900;2023-05-23T11:42:10;19.25;;;11.80;;
37451;SDS011;23314;51.114;6.900;2023-05-23T11:44:35;15.80;;;10.65;;
37451;SDS011;23314;51.114;6.900;2023-05-23T11:47:01;15.95;;;11.00;;
37451;SDS011;23314;51.114;6.900;2023-05-23T11:49:28;13.20;;;10.32;;
37451;SDS011;23314;51.114;6.900;2023-05-23T11:52:00;12.60;;;9.95;;
37451;SDS011;23314;51.114;6.900;2023-05-23T11:54:26;11.88;;;9.63;;
37451;SDS011;23314;51.114;6.900;2023-05-23T11:56:52;11.63;;;9.25;;
37451;SDS011;23314;51.114;6.900;2023-05-23T11:59:18;14.15;;;8.10;;
37451;SDS011;23314;51.114;6.900;2023-05-23T12:01:45;10.65;;;8.77;;
37451;SDS011;23314;51.114;6.900;2023-05-23T12:04:11;14.07;;;10.00;;
37451;SDS011;23314;51.114;6.900;2023-05-23T12:06:39;15.93;;;10.38;;
37451;SDS011;23314;51.114;6.900;2023-05-23T12:09:05;14.03;;;10.13;;
37451;SDS011;23314;51.114;6.900;2023-05-23T12:11:32;12.20;;;8.83;;
37451;SDS011;23314;51.114;6.900;2023-05-23T12:13:58;11.48;;;8.23;;
37451;SDS011;23314;51.114;6.900;2023-05-23T12:16:30;14.55;;;8.85;;
37451;SDS011;23314;51.114;6.900;2023-05-23T12:18:57;15.85;;;13.20;;
37451;SDS011;23314;51.114;6.900;2023-05-23T12:21:26;19.17;;;14.38;;
37451;SDS011;23314;51.114;6.900;2023-05-23T12:24:13;14.70;;;12.93;;
37451;SDS011;23314;51.114;6.900;2023-05-23T12:29:29;13.13;;;10.10;;
37451;SDS011;23314;51.114;6.900;2023-05-23T12:31:59;10.65;;;9.55;;
37451;SDS011;23314;51.114;6.900;2023-05-23T12:34:26;11.77;;;9.57;;
37451;SDS011;23314;51.114;6.900;2023-05-23T12:36:55;13.98;;;9.68;;
37451;SDS011;23314;51.114;6.900;2023-05-23T12:39:24;17.05;;;10.25;;
37451;SDS011;23314;51.114;6.900;2023-05-23T12:41:51;14.32;;;10.80;;
37451;SDS011;23314;51.114;6.900;2023-05-23T12:44:17;11.65;;;8.88;;
37451;SDS011;23314;51.114;6.900;2023-05-23T12:46:42;13.48;;;9.32;;
37451;SDS011;23314;51.114;6.900;2023-05-23T12:49:08;14.02;;;7.97;;
37451;SDS011;23314;51.114;6.900;2023-05-23T12:51:33;13.55;;;7.28;;
37451;SDS011;23314;51.114;6.900;2023-05-23T12:53:58;12.10;;;6.25;;
37451;SDS011;23314;51.114;6.900;2023-05-23T12:56:24;10.35;;;6.18;;
37451;SDS011;23314;51.114;6.900;2023-05-23T12:58:50;10.93;;;6.25;;
37451;SDS011;23314;51.114;6.900;2023-05-23T13:01:17;12.23;;;5.97;;
37451;SDS011;23314;51.114;6.900;2023-05-23T13:03:43;16.63;;;5.97;;
37451;SDS011;23314;51.114;6.900;2023-05-23T13:06:08;10.05;;;5.85;;
37451;SDS011;23314;51.114;6.900;2023-05-23T13:08:33;10.73;;;5.90;;
37451;SDS011;23314;51.114;6.900;2023-05-23T13:10:59;11.90;;;5.80;;
37451;SDS011;23314;51.114;6.900;2023-05-23T13:13:24;11.25;;;6.25;;
37451;SDS011;23314;51.114;6.900;2023-05-23T13:15:50;8.90;;;6.22;;
37451;SDS011;23314;51.114;6.900;2023-05-23T13:18:15;13.35;;;7.88;;
37451;SDS011;23314;51.114;6.900;2023-05-23T13:20:41;13.70;;;7.72;;
37451;SDS011;23314;51.114;6.900;2023-05-23T13:23:06;11.73;;;6.55;;
37451;SDS011;23314;51.114;6.900;2023-05-23T13:25:32;14.57;;;7.55;;
37451;SDS011;23314;51.114;6.900;2023-05-23T13:27:57;10.93;;;7.70;;
37451;SDS011;23314;51.114;6.900;2023-05-23T13:30:23;15.27;;;8.73;;
37451;SDS011;23314;51.114;6.900;2023-05-23T13:32:48;14.05;;;7.90;;
37451;SDS011;23314;51.114;6.900;2023-05-23T13:35:14;13.98;;;8.15;;
37451;SDS011;23314;51.114;6.900;2023-05-23T13:37:40;12.90;;;8.18;;
37451;SDS011;23314;51.114;6.900;2023-05-23T13:40:06;16.05;;;8.20;;
37451;SDS011;23314;51.114;6.900;2023-05-23T13:42:33;13.23;;;8.73;;
37451;SDS011;23314;51.114;6.900;2023-05-23T13:44:58;15.30;;;9.15;;
37451;SDS011;23314;51.114;6.900;2023-05-23T13:47:24;12.60;;;9.13;;
37451;SDS011;23314;51.114;6.900;2023-05-23T13:49:49;11.90;;;9.40;;
37451;SDS011;23314;51.114;6.900;2023-05-23T13:52:15;12.90;;;8.63;;
37451;SDS011;23314;51.114;6.900;2023-05-23T13:54:40;17.60;;;8.77;;
37451;SDS011;23314;51.114;6.900;2023-05-23T13:57:05;16.52;;;9.02;;
37451;SDS011;23314;51.114;6.900;2023-05-23T13:59:31;13.55;;;7.82;;
37451;SDS011;23314;51.114;6.900;2023-05-23T14:01:57;14.48;;;7.43;;
37451;SDS011;23314;51.114;6.900;2023-05-23T14:04:23;10.82;;;7.25;;
37451;SDS011;23314;51.114;6.900;2023-05-23T14:06:48;11.82;;;6.88;;
37451;SDS011;23314;51.114;6.900;2023-05-23T14:09:13;10.95;;;6.85;;
37451;SDS011;23314;51.114;6.900;2023-05-23T14:11:39;13.35;;;7.35;;
37451;SDS011;23314;51.114;6.900;2023-05-23T14:14:04;15.30;;;7.47;;
37451;SDS011;23314;51.114;6.900;2023-05-23T14:16:30;10.98;;;7.30;;
37451;SDS011;23314;51.114;6.900;2023-05-23T14:18:55;14.25;;;8.18;;
37451;SDS011;23314;51.114;6.900;2023-05-23T14:21:21;11.57;;;7.28;;
37451;SDS011;23314;51.114;6.900;2023-05-23T14:23:47;16.23;;;8.98;;
37451;SDS011;23314;51.114;6.900;2023-05-23T14:26:12;22.67;;;9.40;;
37451;SDS011;23314;51.114;6.900;2023-05-23T14:28:37;13.73;;;9.90;;
37451;SDS011;23314;51.114;6.900;2023-05-23T14:31:03;14.10;;;9.05;;
37451;SDS011;23314;51.114;6.900;2023-05-23T14:33:29;14.43;;;8.57;;
37451;SDS011;23314;51.114;6.900;2023-05-23T14:35:54;12.73;;;7.45;;
37451;SDS011;23314;51.114;6.900;2023-05-23T14:38:19;20.48;;;9.50;;
37451;SDS011;23314;51.114;6.900;2023-05-23T14:40:45;18.73;;;9.85;;
37451;SDS011;23314;51.114;6.900;2023-05-23T14:43:11;16.10;;;7.80;;
37451;SDS011;23314;51.114;6.900;2023-05-23T14:45:36;16.15;;;7.07;;
37451;SDS011;23314;51.114;6.900;2023-05-23T14:48:03;14.32;;;10.20;;
37451;SDS011;23314;51.114;6.900;2023-05-23T14:50:29;12.35;;;9.80;;
37451;SDS011;23314;51.114;6.900;2023-05-23T14:52:54;15.77;;;10.35;;